KJAQ

Westover Field Amador County Airport

Jackson, California, USA
METAR KJAQ 192055Z AUTO 30007KT 280V350 10SM SCT039 SCT055 07/M05 A2994 RMK AO1 T00661047
Observed Flight Rules
Feb-19 @ 20:55 UTC (36 minutes ago) Visual Flight Rules
Wind Visibility Clouds
300° at 7 knots 10 miles
  • Scattered at 3,900' AGL
  • Scattered at 5,500' AGL
Temperatures Readings
Current 7°C / 45°F
Dewpoint -5°C / 23°F
Humidity 42%
Altimeter 29.94" Hg
Pressure 1014 hPa
Elevation 512
METAR KJAQ 192055Z AUTO 30007KT 280V350 10SM SCT039 SCT055 07/M05 A2994 RMK AO1 T00661047
Observed Flight Rules
Feb-19 @ 20:55 UTC
(36 minutes ago)
VFR
Wind Visibility
300° at 7 knots 10 miles
Clouds
  • Scattered at 3,900' AGL
  • Scattered at 5,500' AGL
Temperature Dewpoint
7°C / 45°F -5°C / 23°F
Humidity Altimeter Pressure
42% 29.94" Hg 1014 hPa